Time;durP1;ratioP1;P1;durP2;ratioP2;P2;SDS_P1;SDS_P2;PMS_P1;PMS_P2;Temp;Humidity;BMP_temperature;BMP_pressure;BME280_temperature;BME280_humidity;BME280_pressure;Samples;Min_cycle;Max_cycle;Signal;HPM_P1;HPM_P2
2021/09/26 00:00:09;;;;;;;9.20;8.20;;;19.60;77.90;;;;;;5053556;28;20052;-66
2021/09/26 00:02:35;;;;;;;8.52;7.68;;;19.60;78.00;;;;;;5054283;28;20500;-67
2021/09/26 00:05:01;;;;;;;9.07;8.18;;;19.60;78.70;;;;;;5055471;28;20036;-66
2021/09/26 00:07:26;;;;;;;8.88;7.97;;;19.60;77.80;;;;;;5057132;28;20024;-67
2021/09/26 00:09:52;;;;;;;10.40;7.82;;;19.60;77.80;;;;;;5056446;28;20175;-66
2021/09/26 00:12:18;;;;;;;8.82;7.93;;;19.60;77.90;;;;;;5049017;28;20389;-66
2021/09/26 00:14:44;;;;;;;9.57;8.20;;;19.60;77.90;;;;;;5053401;28;20037;-66
2021/09/26 00:17:10;;;;;;;10.95;8.13;;;19.60;77.90;;;;;;5057311;28;20423;-66
2021/09/26 00:19:36;;;;;;;9.05;8.15;;;19.60;77.90;;;;;;5055853;28;20033;-67
2021/09/26 00:22:01;;;;;;;8.93;8.07;;;19.60;77.90;;;;;;5055189;28;20033;-66
2021/09/26 00:24:27;;;;;;;11.35;8.57;;;19.60;77.90;;;;;;5053039;28;20029;-66
2021/09/26 00:26:53;;;;;;;9.88;8.88;;;19.50;77.80;;;;;;5055830;28;20025;-66
2021/09/26 00:29:18;;;;;;;9.52;8.52;;;19.50;77.90;;;;;;5055483;28;20029;-66
2021/09/26 00:31:44;;;;;;;9.77;8.77;;;19.50;77.90;;;;;;5054006;28;20044;-65
2021/09/26 00:34:09;;;;;;;9.68;8.68;;;19.50;78.00;;;;;;5054767;28;20029;-66
2021/09/26 00:36:35;;;;;;;9.60;8.60;;;19.50;77.90;;;;;;5055138;28;20029;-66
2021/09/26 00:39:02;;;;;;;10.10;8.88;;;19.50;78.00;;;;;;5055580;28;20029;-66
2021/09/26 00:41:27;;;;;;;10.10;8.70;;;19.50;78.00;;;;;;5056104;28;20069;-66
2021/09/26 00:43:53;;;;;;;8.70;7.80;;;19.40;78.00;;;;;;5055499;28;20063;-66
2021/09/26 00:46:19;;;;;;;11.07;8.75;;;19.40;78.00;;;;;;5054455;28;20064;-66
2021/09/26 00:48:44;;;;;;;9.23;8.32;;;19.40;78.00;;;;;;5056141;28;20039;-66
2021/09/26 00:51:11;;;;;;;9.50;8.50;;;19.40;78.00;;;;;;5056853;28;20051;-66
2021/09/26 00:53:46;;;;;;;9.63;8.63;;;19.40;78.00;;;;;;5059355;28;20040;-66
2021/09/26 00:56:11;;;;;;;;;;;19.40;78.50;;;;;;5055897;28;20037;-66
2021/09/26 00:58:38;;;;;;;8.27;7.47;;;19.40;78.20;;;;;;5057530;28;19912;-66
2021/09/26 01:01:04;;;;;;;9.35;8.38;;;19.30;77.50;;;;;;5051944;28;20049;-67
2021/09/26 01:03:30;;;;;;;10.10;8.75;;;19.30;77.80;;;;;;5050060;28;20583;-66
2021/09/26 01:06:23;;;;;;;9.13;8.20;;;19.30;78.00;;;;;;5047440;28;20032;-66
2021/09/26 01:09:10;;;;;;;9.10;8.20;;;19.30;78.40;;;;;;5049384;28;20033;-67
2021/09/26 01:11:55;;;;;;;9.55;7.97;;;19.20;78.70;;;;;;5045535;28;20069;-66
2021/09/26 01:14:38;;;;;;;9.27;8.25;;;19.20;78.90;;;;;;5052552;28;20562;-67
2021/09/26 01:17:48;;;;;;;9.20;8.00;;;19.20;78.60;;;;;;5035709;28;20416;-66
2021/09/26 01:20:40;;;;;;;8.38;7.38;;;19.20;78.90;;;;;;5012548;28;20481;-67
2021/09/26 01:23:06;;;;;;;9.55;8.13;;;19.20;78.90;;;;;;5039028;28;20921;-66
2021/09/26 01:26:09;;;;;;;9.43;8.35;;;19.20;78.20;;;;;;5049041;28;20052;-66
2021/09/26 01:29:03;;;;;;;9.13;8.23;;;19.20;79.10;;;;;;5051896;28;20396;-66
2021/09/26 01:31:36;;;;;;;7.47;6.75;;;19.20;78.60;;;;;;5051884;28;20047;-66
2021/09/26 01:34:21;;;;;;;8.75;7.72;;;19.20;78.40;;;;;;5051696;28;20037;-66
2021/09/26 01:36:57;;;;;;;8.57;7.68;;;19.20;78.60;;;;;;5049535;28;20138;-66
2021/09/26 01:39:44;;;;;;;13.07;8.30;;;19.20;78.60;;;;;;5054779;28;20029;-67
2021/09/26 01:42:19;;;;;;;9.02;8.00;;;19.20;78.80;;;;;;5057784;28;20068;-66
2021/09/26 01:45:11;;;;;;;8.30;7.45;;;19.30;78.60;;;;;;5047226;28;20040;-67
2021/09/26 01:47:50;;;;;;;9.05;8.13;;;19.30;78.90;;;;;;5050527;28;20047;-66
2021/09/26 01:50:16;;;;;;;8.07;7.28;;;19.20;78.60;;;;;;5049126;28;20048;-66
2021/09/26 01:52:47;;;;;;;8.23;7.43;;;19.20;78.30;;;;;;5052617;28;20032;-67
2021/09/26 01:55:13;;;;;;;9.27;7.90;;;19.20;78.70;;;;;;5063191;28;20033;-67
2021/09/26 01:57:41;;;;;;;8.77;7.65;;;19.20;78.60;;;;;;5053855;28;20029;-66
2021/09/26 02:00:10;;;;;;;8.52;7.55;;;19.20;78.60;;;;;;5047131;28;20036;-67
2021/09/26 02:02:36;;;;;;;8.38;7.47;;;19.20;78.60;;;;;;5047369;28;20082;-66
2021/09/26 02:05:05;;;;;;;8.25;7.45;;;19.30;78.40;;;;;;5052855;28;21067;-66
2021/09/26 02:07:43;;;;;;;9.25;8.27;;;19.20;78.40;;;;;;5048363;28;20091;-66
2021/09/26 02:10:10;;;;;;;8.02;7.22;;;19.20;78.40;;;;;;5048516;28;20135;-67
2021/09/26 02:12:35;;;;;;;9.52;7.72;;;19.20;78.40;;;;;;5051775;28;20032;-66
2021/09/26 02:15:07;;;;;;;8.32;7.13;;;19.20;78.40;;;;;;5053419;28;20420;-66
2021/09/26 02:17:33;;;;;;;9.38;7.35;;;19.20;78.50;;;;;;5053205;28;20029;-66
2021/09/26 02:20:00;;;;;;;8.82;7.47;;;19.20;78.30;;;;;;5049551;28;20033;-67
2021/09/26 02:22:31;;;;;;;8.88;7.68;;;19.20;78.20;;;;;;5053031;28;20036;-66
2021/09/26 02:24:59;;;;;;;9.23;7.35;;;19.20;78.40;;;;;;5051677;28;20045;-66
2021/09/26 02:27:26;;;;;;;8.27;7.38;;;19.20;78.20;;;;;;5054735;28;20064;-66
2021/09/26 02:29:52;;;;;;;8.25;7.43;;;19.20;78.20;;;;;;5047242;28;20032;-65
2021/09/26 02:32:17;;;;;;;8.52;7.63;;;19.20;78.20;;;;;;5046807;28;20048;-66
2021/09/26 02:34:43;;;;;;;8.60;7.65;;;19.20;78.20;;;;;;5053463;28;20045;-66
2021/09/26 02:37:09;;;;;;;9.27;7.95;;;19.20;78.20;;;;;;5056064;28;20043;-66
2021/09/26 02:39:35;;;;;;;7.28;6.57;;;19.20;78.20;;;;;;5051993;28;20078;-66
2021/09/26 02:42:11;;;;;;;7.85;7.05;;;19.20;78.40;;;;;;5052546;28;20039;-66
2021/09/26 02:44:45;;;;;;;9.57;7.13;;;19.20;78.70;;;;;;5049855;28;20035;-66
2021/09/26 02:47:24;;;;;;;8.98;6.60;;;19.20;78.50;;;;;;5068113;28;20033;-66
2021/09/26 02:49:52;;;;;;;7.65;6.93;;;19.20;78.60;;;;;;5049772;28;20464;-66
2021/09/26 02:52:19;;;;;;;7.50;6.80;;;19.20;78.30;;;;;;5051713;28;20521;-66
2021/09/26 02:54:46;;;;;;;8.20;7.38;;;19.20;78.20;;;;;;5052237;28;20086;-66
2021/09/26 02:57:12;;;;;;;7.85;7.05;;;19.20;78.50;;;;;;5045938;28;20032;-66
2021/09/26 02:59:39;;;;;;;7.78;6.97;;;19.20;78.40;;;;;;5045550;28;20029;-66
2021/09/26 03:02:06;;;;;;;8.05;6.97;;;19.20;78.50;;;;;;5051434;28;20408;-65
2021/09/26 03:04:31;;;;;;;8.52;7.63;;;19.20;78.50;;;;;;5044923;28;20037;-66
2021/09/26 03:06:57;;;;;;;8.63;7.03;;;19.20;78.40;;;;;;5047758;28;20499;-66
2021/09/26 03:09:23;;;;;;;9.95;7.72;;;19.20;79.20;;;;;;5045909;28;20025;-66
2021/09/26 03:11:49;;;;;;;8.27;7.35;;;19.20;78.60;;;;;;5045897;28;20420;-66
2021/09/26 03:14:16;;;;;;;8.30;7.38;;;19.20;78.60;;;;;;5052057;28;20040;-66
2021/09/26 03:16:41;;;;;;;8.85;7.38;;;19.20;78.60;;;;;;5051201;28;20036;-66
2021/09/26 03:19:08;;;;;;;8.50;6.57;;;19.20;78.70;;;;;;5044468;28;20079;-66
2021/09/26 03:21:34;;;;;;;10.85;7.30;;;19.10;78.70;;;;;;5049564;28;20159;-65
2021/09/26 03:23:59;;;;;;;8.20;7.40;;;19.10;78.70;;;;;;5048255;28;20045;-66
2021/09/26 03:26:25;;;;;;;8.18;7.38;;;19.10;79.00;;;;;;5053421;28;20060;-66
2021/09/26 03:28:52;;;;;;;11.13;7.68;;;19.10;79.20;;;;;;5048521;28;20036;-66
2021/09/26 03:31:20;;;;;;;8.60;7.68;;;19.10;79.20;;;;;;5047553;28;20056;-66
2021/09/26 03:33:46;;;;;;;8.38;7.50;;;19.10;79.30;;;;;;5048537;28;20170;-66
2021/09/26 03:36:12;;;;;;;8.05;6.75;;;19.10;79.10;;;;;;5046481;28;20115;-66
2021/09/26 03:38:37;;;;;;;7.97;7.18;;;19.10;79.30;;;;;;5049952;28;20151;-66
2021/09/26 03:41:03;;;;;;;10.68;7.75;;;19.00;79.30;;;;;;5049360;28;20033;-66
2021/09/26 03:43:29;;;;;;;8.80;7.28;;;19.00;79.40;;;;;;5050531;28;20118;-66
2021/09/26 03:45:55;;;;;;;7.82;7.03;;;19.00;79.60;;;;;;5049619;28;20037;-66
2021/09/26 03:48:24;;;;;;;8.15;7.28;;;19.00;79.70;;;;;;5047426;28;20400;-66
2021/09/26 03:50:51;;;;;;;8.32;7.53;;;19.00;79.90;;;;;;5044613;28;20839;-66
2021/09/26 03:53:17;;;;;;;9.43;7.28;;;19.00;79.70;;;;;;5053129;28;20403;-67
2021/09/26 03:55:44;;;;;;;7.90;6.90;;;19.00;79.80;;;;;;5049493;28;20052;-66
2021/09/26 03:58:09;;;;;;;8.00;7.20;;;19.00;79.80;;;;;;5051424;28;20532;-66
2021/09/26 04:00:36;;;;;;;8.60;7.60;;;19.00;79.70;;;;;;5049069;28;20078;-66
2021/09/26 04:03:01;;;;;;;8.93;7.22;;;19.00;79.80;;;;;;5044357;28;20046;-64
2021/09/26 04:05:27;;;;;;;8.85;7.93;;;18.90;79.60;;;;;;5042915;28;20114;-65
2021/09/26 04:07:53;;;;;;;7.85;7.00;;;18.90;79.60;;;;;;5044829;28;20037;-66
2021/09/26 04:10:19;;;;;;;8.10;7.18;;;18.90;79.60;;;;;;5046540;28;20031;-65
2021/09/26 04:12:45;;;;;;;8.25;6.88;;;18.90;79.60;;;;;;5050798;28;20037;-66
2021/09/26 04:15:12;;;;;;;7.47;6.70;;;18.90;79.60;;;;;;5051900;28;20029;-65
2021/09/26 04:17:38;;;;;;;8.85;7.78;;;18.90;79.60;;;;;;5052719;28;20074;-65
2021/09/26 04:20:05;;;;;;;12.02;8.23;;;18.90;79.60;;;;;;5052116;28;20120;-66
2021/09/26 04:22:31;;;;;;;9.27;7.68;;;18.80;79.60;;;;;;5050389;28;20113;-66
2021/09/26 04:24:57;;;;;;;9.63;8.07;;;18.80;79.50;;;;;;5050297;28;20124;-65
2021/09/26 04:27:22;;;;;;;9.18;7.97;;;18.80;79.60;;;;;;5051338;28;20064;-66
2021/09/26 04:29:49;;;;;;;9.90;8.65;;;18.80;79.60;;;;;;5049396;28;20389;-66
2021/09/26 04:32:15;;;;;;;10.18;8.63;;;18.80;79.60;;;;;;5056210;28;20068;-66
2021/09/26 04:34:41;;;;;;;10.95;8.27;;;18.70;79.40;;;;;;5050300;28;20483;-65
2021/09/26 04:37:07;;;;;;;9.13;7.63;;;18.70;79.30;;;;;;5052278;28;20123;-66
2021/09/26 04:39:33;;;;;;;8.98;7.50;;;18.70;79.10;;;;;;5051176;28;20107;-66
2021/09/26 04:41:59;;;;;;;10.60;7.97;;;18.70;79.00;;;;;;5047587;28;20120;-66
2021/09/26 04:44:24;;;;;;;11.98;8.20;;;18.60;78.90;;;;;;5052221;28;21292;-66
2021/09/26 04:46:50;;;;;;;9.05;7.72;;;18.60;78.80;;;;;;5056237;28;20036;-66
2021/09/26 04:49:16;;;;;;;7.97;7.05;;;18.50;78.70;;;;;;5048041;28;20491;-66
2021/09/26 04:51:41;;;;;;;8.52;7.20;;;18.50;78.70;;;;;;5046149;28;20045;-66
2021/09/26 04:54:07;;;;;;;9.52;7.40;;;18.50;78.80;;;;;;5051860;28;20129;-66
2021/09/26 04:56:33;;;;;;;8.75;7.53;;;18.50;78.80;;;;;;5055804;28;20108;-66
2021/09/26 04:58:58;;;;;;;9.18;7.90;;;18.40;78.70;;;;;;5055540;28;20029;-66
2021/09/26 05:01:24;;;;;;;9.82;7.10;;;18.40;78.90;;;;;;5056476;28;20424;-65
2021/09/26 05:03:50;;;;;;;8.45;7.55;;;18.40;79.00;;;;;;5048605;28;20496;-66
2021/09/26 05:06:15;;;;;;;9.13;7.10;;;18.30;79.00;;;;;;5054321;28;20036;-65
2021/09/26 05:08:42;;;;;;;8.27;7.47;;;18.30;79.00;;;;;;5050758;28;20029;-66
2021/09/26 05:11:08;;;;;;;10.60;7.45;;;18.30;79.20;;;;;;5053398;28;20047;-66
2021/09/26 05:13:34;;;;;;;9.77;6.88;;;18.30;79.20;;;;;;5055937;28;20029;-65
2021/09/26 05:15:59;;;;;;;7.88;7.00;;;18.20;79.10;;;;;;5054256;28;20032;-66
2021/09/26 05:18:25;;;;;;;7.82;7.03;;;18.20;79.30;;;;;;5054810;28;20035;-66
2021/09/26 05:20:54;;;;;;;7.88;6.95;;;18.20;79.30;;;;;;5051870;28;20044;-66
2021/09/26 05:23:20;;;;;;;8.88;7.70;;;18.20;79.40;;;;;;5053825;28;20044;-66
2021/09/26 05:25:48;;;;;;;9.60;7.85;;;18.10;79.40;;;;;;5055248;28;20033;-66
2021/09/26 05:28:13;;;;;;;10.52;7.43;;;18.10;80.50;;;;;;5057245;28;20025;-66
2021/09/26 05:30:39;;;;;;;8.45;6.80;;;18.10;79.90;;;;;;5049035;28;20048;-66
2021/09/26 05:33:05;;;;;;;8.45;7.18;;;18.10;79.80;;;;;;5054436;28;20404;-66
2021/09/26 05:35:30;;;;;;;8.40;7.32;;;18.10;79.80;;;;;;5047089;28;20120;-66
2021/09/26 05:37:57;;;;;;;8.10;7.30;;;18.00;79.80;;;;;;5051236;28;20029;-66
2021/09/26 05:40:23;;;;;;;7.88;7.10;;;18.00;79.80;;;;;;5054022;28;20029;-66
2021/09/26 05:42:49;;;;;;;7.20;6.50;;;18.00;79.80;;;;;;5057462;28;20138;-66
2021/09/26 05:45:14;;;;;;;8.38;7.18;;;18.00;79.80;;;;;;5049585;28;20033;-66
2021/09/26 05:47:40;;;;;;;7.78;6.97;;;18.00;80.00;;;;;;5051679;28;20177;-66
2021/09/26 05:50:06;;;;;;;8.23;6.97;;;18.00;80.00;;;;;;5048511;28;20041;-66
2021/09/26 05:52:32;;;;;;;7.60;6.68;;;18.00;79.80;;;;;;5051840;28;20032;-66
2021/09/26 05:54:57;;;;;;;7.85;6.60;;;18.00;80.80;;;;;;5055978;28;20033;-66
2021/09/26 05:57:23;;;;;;;7.03;6.03;;;18.00;80.10;;;;;;5059128;28;20035;-66
2021/09/26 05:59:49;;;;;;;7.70;6.85;;;18.00;80.20;;;;;;5057962;28;20502;-65
2021/09/26 06:02:22;;;;;;;9.88;8.88;;;18.00;80.10;;;;;;5048860;28;20024;-66
2021/09/26 06:04:48;;;;;;;9.98;8.98;;;18.00;80.30;;;;;;5034463;28;20026;-66
2021/09/26 06:07:14;;;;;;;9.52;7.45;;;17.90;80.20;;;;;;5033264;28;20114;-66
2021/09/26 06:09:41;;;;;;;10.02;8.20;;;17.90;80.50;;;;;;5033000;28;20064;-66
2021/09/26 06:12:07;;;;;;;8.75;7.60;;;17.90;80.40;;;;;;5032233;28;20512;-66
2021/09/26 06:14:33;;;;;;;9.15;8.25;;;17.90;80.50;;;;;;5033535;28;20036;-66
2021/09/26 06:16:58;;;;;;;8.50;7.03;;;17.90;80.60;;;;;;5034088;28;20389;-66
2021/09/26 06:19:24;;;;;;;9.48;7.78;;;17.90;80.50;;;;;;5033067;28;20485;-66
2021/09/26 06:21:49;;;;;;;8.88;7.88;;;17.90;80.70;;;;;;5033599;28;20040;-66
2021/09/26 06:24:15;;;;;;;10.30;7.88;;;17.90;80.80;;;;;;5031053;28;20041;-66
2021/09/26 06:26:41;;;;;;;10.07;7.78;;;18.00;81.10;;;;;;5028510;28;20025;-65
2021/09/26 06:29:07;;;;;;;9.32;8.43;;;17.90;81.20;;;;;;5026293;28;20038;-66
2021/09/26 06:31:33;;;;;;;9.27;8.40;;;17.90;81.30;;;;;;5027147;28;20560;-66
2021/09/26 06:33:59;;;;;;;10.20;8.38;;;17.90;81.50;;;;;;5025624;28;20080;-64
2021/09/26 06:36:24;;;;;;;9.82;8.73;;;18.00;81.70;;;;;;5023770;28;20048;-66
2021/09/26 06:38:50;;;;;;;9.82;8.45;;;18.00;81.80;;;;;;5026002;28;20475;-66
2021/09/26 06:41:18;;;;;;;17.15;14.60;;;18.00;81.90;;;;;;5026537;28;20046;-66
2021/09/26 06:43:43;;;;;;;17.88;15.93;;;18.10;82.00;;;;;;5029575;28;20033;-66
2021/09/26 06:46:09;;;;;;;16.20;12.95;;;18.10;82.20;;;;;;5027837;28;20041;-65
2021/09/26 06:48:34;;;;;;;11.10;9.27;;;18.10;82.10;;;;;;5023267;28;20060;-66
2021/09/26 06:51:00;;;;;;;8.50;7.50;;;18.10;82.20;;;;;;5026573;28;20075;-66
2021/09/26 06:53:26;;;;;;;8.60;7.63;;;18.20;82.40;;;;;;5025277;28;20053;-66
2021/09/26 06:55:51;;;;;;;7.80;6.75;;;18.20;82.40;;;;;;5026667;28;20508;-66
2021/09/26 06:58:17;;;;;;;10.23;6.75;;;18.20;82.50;;;;;;5030519;28;20079;-66
2021/09/26 07:00:42;;;;;;;9.23;6.68;;;18.30;82.60;;;;;;5024207;28;20045;-66
2021/09/26 07:03:08;;;;;;;9.10;6.88;;;18.30;82.50;;;;;;5024458;28;20037;-65
2021/09/26 07:05:34;;;;;;;7.70;6.47;;;18.30;82.40;;;;;;5026220;28;20044;-66
2021/09/26 07:07:59;;;;;;;10.00;6.45;;;18.30;82.40;;;;;;5022711;28;20190;-66
2021/09/26 07:10:25;;;;;;;7.28;6.18;;;18.40;82.60;;;;;;5016863;28;20044;-65
2021/09/26 07:12:51;;;;;;;6.50;5.82;;;18.40;82.60;;;;;;5009824;28;20063;-65
2021/09/26 07:15:17;;;;;;;7.55;6.53;;;18.40;82.60;;;;;;5009897;28;20080;-66
2021/09/26 07:17:42;;;;;;;8.13;6.55;;;18.50;82.70;;;;;;5017699;28;20033;-66
2021/09/26 07:20:08;;;;;;;7.20;6.30;;;18.50;82.60;;;;;;5014732;28;20037;-65
2021/09/26 07:22:34;;;;;;;8.52;6.63;;;18.60;82.60;;;;;;5028325;28;20084;-67
2021/09/26 07:25:00;;;;;;;9.15;6.57;;;18.60;82.50;;;;;;5026433;28;20041;-67
2021/09/26 07:27:26;;;;;;;10.15;7.35;;;18.60;82.40;;;;;;5031123;28;20374;-67
2021/09/26 07:29:56;;;;;;;8.88;7.88;;;18.70;82.30;;;;;;5030034;28;20425;-66
2021/09/26 07:32:22;;;;;;;8.02;6.82;;;18.80;82.20;;;;;;5028226;28;20029;-66
2021/09/26 07:34:48;;;;;;;9.68;7.82;;;18.70;82.10;;;;;;5028801;28;20037;-67
2021/09/26 07:37:13;;;;;;;8.77;7.47;;;18.80;82.30;;;;;;5051036;28;20469;-67
2021/09/26 07:39:39;;;;;;;7.97;7.05;;;18.90;82.30;;;;;;5049384;28;20035;-66
2021/09/26 07:42:05;;;;;;;8.52;7.35;;;18.80;82.10;;;;;;5048383;28;20116;-66
2021/09/26 07:44:31;;;;;;;8.55;7.32;;;18.90;82.20;;;;;;5050251;28;20521;-66
2021/09/26 07:46:57;;;;;;;10.48;7.45;;;19.00;82.50;;;;;;5050392;28;20524;-67
2021/09/26 07:49:22;;;;;;;10.65;8.88;;;19.00;82.40;;;;;;5049445;28;20037;-65
2021/09/26 07:51:48;;;;;;;9.32;8.38;;;19.10;82.70;;;;;;5048809;28;20055;-66
2021/09/26 07:54:16;;;;;;;10.82;7.95;;;19.10;82.70;;;;;;5044221;28;20047;-66
2021/09/26 07:56:43;;;;;;;9.98;8.93;;;19.20;82.30;;;;;;5042535;28;20083;-66
2021/09/26 07:59:08;;;;;;;11.00;8.45;;;19.20;82.20;;;;;;5048463;28;20044;-65
2021/09/26 08:01:34;;;;;;;10.65;9.10;;;19.30;82.20;;;;;;5046670;28;20037;-66
2021/09/26 08:04:00;;;;;;;9.82;8.80;;;19.30;82.10;;;;;;5050139;28;20916;-66
2021/09/26 08:06:26;;;;;;;10.55;8.88;;;19.40;82.00;;;;;;5043665;28;20033;-66
2021/09/26 08:08:51;;;;;;;10.52;9.35;;;19.40;82.20;;;;;;5052127;28;20404;-66
2021/09/26 08:11:17;;;;;;;11.18;8.98;;;19.50;82.60;;;;;;5045875;28;20044;-66
2021/09/26 08:13:43;;;;;;;9.98;8.98;;;19.50;82.70;;;;;;5055087;28;20068;-66
2021/09/26 08:16:08;;;;;;;9.73;8.73;;;19.60;82.90;;;;;;5049928;28;20060;-67
2021/09/26 08:18:34;;;;;;;10.13;8.68;;;19.60;82.80;;;;;;5052228;28;20033;-66
2021/09/26 08:21:00;;;;;;;10.50;8.45;;;19.70;82.70;;;;;;5049841;28;20435;-66
2021/09/26 08:23:25;;;;;;;11.40;9.07;;;19.80;82.80;;;;;;5047758;28;20124;-66
2021/09/26 08:25:51;;;;;;;11.88;9.50;;;19.80;82.70;;;;;;5047084;28;20714;-67
2021/09/26 08:28:18;;;;;;;11.40;9.40;;;19.90;82.60;;;;;;5048089;28;20091;-66
2021/09/26 08:30:44;;;;;;;11.40;9.82;;;19.90;82.20;;;;;;5043381;28;20107;-66
2021/09/26 08:33:10;;;;;;;12.18;10.45;;;20.00;82.00;;;;;;5046814;28;20539;-66
2021/09/26 08:35:36;;;;;;;14.50;10.18;;;20.00;81.90;;;;;;5046669;28;20055;-64
2021/09/26 08:38:02;;;;;;;12.52;9.60;;;20.10;81.80;;;;;;5052171;28;20647;-66
2021/09/26 08:40:27;;;;;;;10.68;9.45;;;20.10;81.60;;;;;;5050372;28;20578;-66
2021/09/26 08:42:54;;;;;;;11.50;10.18;;;20.20;81.40;;;;;;5051000;28;20025;-66
2021/09/26 08:45:20;;;;;;;11.73;9.88;;;20.20;81.10;;;;;;5048152;28;20107;-66
2021/09/26 08:47:46;;;;;;;13.00;9.98;;;20.30;81.00;;;;;;5049797;28;20427;-65
2021/09/26 08:50:15;;;;;;;11.05;9.25;;;20.30;80.90;;;;;;5044846;28;20037;-66
2021/09/26 08:52:43;;;;;;;10.68;8.43;;;20.30;80.70;;;;;;5053631;28;20048;-66
2021/09/26 08:55:10;;;;;;;9.65;8.65;;;20.40;80.60;;;;;;5050809;28;20033;-66
2021/09/26 08:57:37;;;;;;;9.60;8.48;;;20.50;80.50;;;;;;5054109;28;20115;-66
2021/09/26 09:00:07;;;;;;;10.57;8.88;;;20.50;80.50;;;;;;5046398;28;20120;-66
2021/09/26 09:02:34;;;;;;;9.40;8.40;;;20.60;80.40;;;;;;5048719;28;20029;-66
2021/09/26 09:05:00;;;;;;;8.30;6.22;;;20.70;80.40;;;;;;5046874;28;20048;-66
2021/09/26 09:07:25;;;;;;;8.05;6.68;;;20.70;79.50;;;;;;5050971;28;20083;-66
2021/09/26 09:09:52;;;;;;;6.70;5.93;;;20.70;78.90;;;;;;5051984;28;20045;-66
2021/09/26 09:12:23;;;;;;;6.60;5.95;;;20.80;78.70;;;;;;5050546;28;20033;-63
2021/09/26 09:14:59;;;;;;;6.95;5.90;;;20.80;78.60;;;;;;5031594;28;20033;-66
2021/09/26 09:17:33;;;;;;;6.47;5.68;;;20.90;78.20;;;;;;5043652;28;20116;-67
2021/09/26 09:20:24;;;;;;;6.20;5.45;;;20.90;78.00;;;;;;5036112;28;20025;-66
2021/09/26 09:22:57;;;;;;;6.75;5.80;;;20.90;77.70;;;;;;5056122;28;20693;-66
2021/09/26 09:25:32;;;;;;;6.47;4.95;;;21.00;77.60;;;;;;5050759;28;20034;-66
2021/09/26 09:27:58;;;;;;;7.18;5.28;;;21.00;77.30;;;;;;5056344;28;20025;-66
2021/09/26 09:30:32;;;;;;;5.57;5.03;;;21.00;77.60;;;;;;5054705;28;20041;-66
2021/09/26 09:32:58;;;;;;;5.93;4.90;;;21.10;77.60;;;;;;5056503;28;20591;-66
2021/09/26 09:35:23;;;;;;;7.57;5.20;;;21.20;78.00;;;;;;5055932;28;20116;-67
2021/09/26 09:37:49;;;;;;;5.60;5.10;;;21.20;77.50;;;;;;5056669;28;20029;-67
2021/09/26 09:40:18;;;;;;;5.40;4.65;;;21.30;76.20;;;;;;5056513;28;20061;-67
2021/09/26 09:42:52;;;;;;;5.72;4.50;;;21.40;75.10;;;;;;5056478;28;20516;-67
2021/09/26 09:45:29;;;;;;;5.00;4.60;;;21.40;73.90;;;;;;5057969;28;20385;-67
2021/09/26 09:48:00;;;;;;;5.25;4.75;;;21.50;72.20;;;;;;5055388;28;20039;-67
2021/09/26 09:50:39;;;;;;;4.90;4.15;;;21.50;73.20;;;;;;5053302;28;20032;-67
2021/09/26 09:53:06;;;;;;;4.68;4.28;;;21.60;70.60;;;;;;5057252;28;20330;-68
2021/09/26 09:55:32;;;;;;;4.28;3.95;;;21.60;71.70;;;;;;5057353;28;20040;-67
2021/09/26 09:58:15;;;;;;;4.30;3.83;;;21.60;71.70;;;;;;5051890;28;20572;-67
2021/09/26 10:00:56;;;;;;;4.28;3.60;;;21.70;70.90;;;;;;5055658;28;20040;-67
2021/09/26 10:03:38;;;;;;;4.20;3.88;;;21.70;71.00;;;;;;5056773;28;20033;-67
2021/09/26 10:06:41;;;;;;;4.40;3.97;;;21.70;70.50;;;;;;5054944;28;20033;-67
2021/09/26 10:09:20;;;;;;;4.45;4.03;;;21.70;69.80;;;;;;5037464;28;20025;-68
2021/09/26 10:12:09;;;;;;;4.47;3.95;;;21.60;69.30;;;;;;5035210;28;20538;-67
2021/09/26 10:14:36;;;;;;;5.25;3.95;;;21.60;69.70;;;;;;5035310;28;20045;-67
2021/09/26 10:17:04;;;;;;;4.28;3.80;;;21.60;70.00;;;;;;5035730;28;20052;-66
2021/09/26 10:19:32;;;;;;;7.35;4.10;;;21.60;69.70;;;;;;5037798;28;20107;-67
2021/09/26 10:21:59;;;;;;;4.90;4.38;;;21.60;70.00;;;;;;5036568;28;20112;-66
2021/09/26 10:24:30;;;;;;;4.50;4.10;;;21.60;70.10;;;;;;5035399;28;20042;-67
2021/09/26 10:27:05;;;;;;;4.95;4.45;;;21.60;70.40;;;;;;5034775;28;20515;-67
2021/09/26 10:29:33;;;;;;;4.88;4.43;;;21.70;69.50;;;;;;5032756;28;20056;-67
2021/09/26 10:32:02;;;;;;;4.93;4.47;;;21.70;70.00;;;;;;5035631;28;20404;-67
2021/09/26 10:34:27;;;;;;;5.90;4.68;;;21.70;69.70;;;;;;5035597;28;20066;-66
2021/09/26 10:36:55;;;;;;;4.63;4.22;;;21.80;69.30;;;;;;5031683;28;20034;-67
2021/09/26 10:39:22;;;;;;;4.55;4.18;;;21.80;69.50;;;;;;5042553;28;20550;-67
2021/09/26 10:42:06;;;;;;;7.40;5.80;;;21.80;69.60;;;;;;5056637;28;20033;-67
2021/09/26 10:44:36;;;;;;;4.15;3.85;;;21.90;69.00;;;;;;5053954;28;20503;-66
2021/09/26 10:47:17;;;;;;;5.00;4.50;;;22.00;69.90;;;;;;5049811;28;20047;-67
2021/09/26 10:50:07;;;;;;;5.50;4.35;;;22.10;68.30;;;;;;5056449;28;20032;-66
2021/09/26 10:52:35;;;;;;;4.55;4.10;;;22.20;68.30;;;;;;5053978;28;20104;-67
2021/09/26 10:55:22;;;;;;;4.75;4.25;;;22.20;68.90;;;;;;5053681;28;20028;-67
2021/09/26 10:58:01;;;;;;;4.13;3.83;;;22.20;67.00;;;;;;5054283;28;20025;-67
2021/09/26 11:00:32;;;;;;;5.10;3.90;;;22.30;68.50;;;;;;5055393;28;20568;-67
2021/09/26 11:03:09;;;;;;;7.22;4.68;;;22.40;68.50;;;;;;5051348;28;20094;-67
2021/09/26 11:05:44;;;;;;;6.18;4.82;;;22.40;68.10;;;;;;5053471;28;20040;-68
2021/09/26 11:08:34;;;;;;;4.03;3.63;;;22.40;68.10;;;;;;5053817;28;20072;-67
2021/09/26 11:11:00;;;;;;;3.70;3.28;;;22.50;68.50;;;;;;5025639;28;20100;-67
2021/09/26 11:13:35;;;;;;;3.10;2.90;;;22.50;68.30;;;;;;5032883;28;20039;-67
2021/09/26 11:16:09;;;;;;;5.93;5.20;;;22.60;68.40;;;;;;5036397;28;20401;-67
2021/09/26 11:18:48;;;;;;;5.27;4.40;;;22.70;67.70;;;;;;5026819;28;20060;-68
2021/09/26 11:21:35;;;;;;;2.75;2.55;;;22.70;66.40;;;;;;5032527;28;20111;-67
2021/09/26 11:24:06;;;;;;;5.07;4.68;;;22.70;66.00;;;;;;5036530;28;20133;-67
2021/09/26 11:27:03;;;;;;;3.75;3.45;;;22.80;67.30;;;;;;5028490;28;20029;-67
2021/09/26 11:29:30;;;;;;;3.20;2.90;;;22.80;66.30;;;;;;5035529;28;20037;-67
2021/09/26 11:31:57;;;;;;;3.20;3.00;;;22.80;66.60;;;;;;5029610;28;20037;-67
2021/09/26 11:34:45;;;;;;;3.55;2.85;;;22.80;66.30;;;;;;5034287;28;20040;-67
2021/09/26 11:37:12;;;;;;;3.15;2.95;;;22.80;65.70;;;;;;5032429;28;20122;-67
2021/09/26 11:39:40;;;;;;;3.78;3.20;;;22.80;66.20;;;;;;5033305;28;20040;-68
2021/09/26 11:42:31;;;;;;;3.00;2.80;;;22.80;66.10;;;;;;5034706;28;20040;-67
2021/09/26 11:44:58;;;;;;;3.25;3.00;;;22.80;65.70;;;;;;5033765;28;20048;-67
2021/09/26 11:47:26;;;;;;;3.30;3.00;;;22.80;66.10;;;;;;5032638;28;20037;-68
2021/09/26 11:49:52;;;;;;;3.25;3.05;;;22.90;66.10;;;;;;5035793;28;20106;-68
2021/09/26 11:52:22;;;;;;;3.45;3.15;;;22.90;67.00;;;;;;5032663;28;20116;-67
2021/09/26 11:54:57;;;;;;;3.03;2.83;;;23.00;66.60;;;;;;5035045;28;20504;-68
2021/09/26 11:57:22;;;;;;;3.65;3.38;;;23.00;66.90;;;;;;5049831;28;20029;-66
2021/09/26 11:59:48;;;;;;;3.63;3.35;;;23.20;67.10;;;;;;5053977;28;20038;-68
2021/09/26 12:02:16;;;;;;;4.75;3.35;;;23.20;66.30;;;;;;5050027;28;20033;-68
2021/09/26 12:04:42;;;;;;;3.90;3.60;;;23.40;65.20;;;;;;5053991;28;26538;-67
2021/09/26 12:07:09;;;;;;;3.70;3.08;;;23.40;65.30;;;;;;5052089;28;20038;-67
2021/09/26 12:09:45;;;;;;;3.85;3.55;;;23.50;65.10;;;;;;5069167;28;20033;-67
2021/09/26 12:12:18;;;;;;;3.80;3.60;;;23.60;64.00;;;;;;5050397;28;20135;-67
2021/09/26 12:14:46;;;;;;;4.07;3.78;;;23.70;64.60;;;;;;5054604;28;20045;-67
2021/09/26 12:17:14;;;;;;;3.92;3.35;;;23.70;64.70;;;;;;5067020;28;20040;-67
2021/09/26 12:19:40;;;;;;;3.75;3.45;;;23.80;64.60;;;;;;5054016;28;20091;-68
2021/09/26 12:22:17;;;;;;;4.20;3.80;;;23.80;64.00;;;;;;5046513;28;20044;-67
2021/09/26 12:24:55;;;;;;;5.78;3.75;;;23.90;62.90;;;;;;5052914;28;20380;-67
2021/09/26 12:27:35;;;;;;;3.88;3.47;;;24.00;62.70;;;;;;5051127;28;20037;-67
2021/09/26 12:30:15;;;;;;;3.60;3.30;;;24.00;61.90;;;;;;5055421;28;20033;-68
2021/09/26 12:32:48;;;;;;;3.75;3.28;;;24.10;61.70;;;;;;5054947;28;20028;-67
2021/09/26 12:35:26;;;;;;;4.18;3.45;;;24.10;61.90;;;;;;5054406;28;20473;-67
2021/09/26 12:37:57;;;;;;;3.80;3.53;;;24.10;61.20;;;;;;5054838;28;20429;-68
2021/09/26 12:40:28;;;;;;;3.60;3.30;;;24.10;61.50;;;;;;5052821;28;20455;-68
2021/09/26 12:42:55;;;;;;;3.63;3.30;;;24.10;61.50;;;;;;5051386;28;20032;-67
2021/09/26 12:45:23;;;;;;;3.85;3.00;;;24.10;61.90;;;;;;5057678;28;20037;-67
2021/09/26 12:47:51;;;;;;;3.50;3.15;;;24.10;61.90;;;;;;5057959;28;20442;-68
2021/09/26 12:50:19;;;;;;;3.60;3.30;;;24.10;62.00;;;;;;5055316;28;20114;-67
2021/09/26 12:52:45;;;;;;;3.80;3.50;;;24.10;62.00;;;;;;5056059;28;20531;-67
2021/09/26 12:55:15;;;;;;;3.50;3.20;;;24.10;62.00;;;;;;5057074;28;20033;-68